createdAt,value
2022-08-03T00:01:42.865Z,84.77
2022-08-03T00:04:11.563Z,84.96
2022-08-03T00:06:38.740Z,84.46
2022-08-03T00:09:06.310Z,86.02
2022-08-03T00:11:33.486Z,88.46
2022-08-03T00:14:01.089Z,89.25
2022-08-03T00:16:27.909Z,89.40
2022-08-03T00:18:54.742Z,88.40
2022-08-03T00:21:22.536Z,87.21
2022-08-03T00:23:52.200Z,86.51
2022-08-03T00:26:20.943Z,86.96
2022-08-03T00:28:48.414Z,85.85
2022-08-03T00:31:15.352Z,84.87
2022-08-03T00:33:59.101Z,84.79
2022-08-03T00:36:29.293Z,84.29
2022-08-03T00:38:56.676Z,83.72
2022-08-03T00:41:23.853Z,84.70
2022-08-03T00:43:51.167Z,85.22
2022-08-03T00:46:21.793Z,86.17
2022-08-03T00:48:52.404Z,85.34
2022-08-03T00:51:20.832Z,85.09
2022-08-03T00:53:48.074Z,85.43
2022-08-03T00:56:16.298Z,85.07
2022-08-03T00:58:46.288Z,85.18
2022-08-03T01:01:15.337Z,85.11
2022-08-03T01:03:42.538Z,85.99
2022-08-03T01:06:36.600Z,86.08
2022-08-03T01:09:20.919Z,85.43
2022-08-03T01:12:04.601Z,86.50
2022-08-03T01:14:39.274Z,86.30
2022-08-03T01:17:57.937Z,85.91
2022-08-03T01:20:28.161Z,85.62
2022-08-03T01:23:21.725Z,86.11
2022-08-03T01:26:06.436Z,85.73
2022-08-03T01:29:05.436Z,85.60
2022-08-03T01:32:58.464Z,85.08
2022-08-03T01:34:36.532Z,84.96
2022-08-03T01:37:06.379Z,84.70
2022-08-03T01:39:33.566Z,85.73
2022-08-03T01:42:06.326Z,85.33
2022-08-03T01:44:38.710Z,87.04
2022-08-03T01:47:07.046Z,87.53
2022-08-03T01:49:40.169Z,87.10
2022-08-03T01:52:07.913Z,86.10
2022-08-03T01:54:40.838Z,87.16
2022-08-03T01:57:08.959Z,86.59
2022-08-03T01:59:37.062Z,86.27
2022-08-03T02:02:29.773Z,86.86
2022-08-03T02:04:56.969Z,88.02
2022-08-03T02:07:26.169Z,87.42
2022-08-03T02:09:56.012Z,87.00
2022-08-03T02:12:27.089Z,86.72
2022-08-03T02:14:56.619Z,85.69
2022-08-03T02:17:39.632Z,85.70
2022-08-03T02:20:09.418Z,85.13
2022-08-03T02:22:40.181Z,85.68
2022-08-03T02:25:10.017Z,86.20
2022-08-03T02:28:02.127Z,85.83
2022-08-03T02:30:38.821Z,85.67
2022-08-03T02:33:11.717Z,85.34
2022-08-03T02:35:40.785Z,85.79
2022-08-03T02:38:10.536Z,85.66
2022-08-03T02:40:40.886Z,85.48
2022-08-03T02:43:11.901Z,84.72
2022-08-03T02:45:46.060Z,84.47
2022-08-03T02:48:17.698Z,84.69
2022-08-03T02:50:45.537Z,84.67
2022-08-03T02:53:14.234Z,85.32
2022-08-03T02:55:43.281Z,86.72
2022-08-03T02:58:14.138Z,86.18
2022-08-03T03:00:44.616Z,86.41
2022-08-03T03:03:11.741Z,86.67
2022-08-03T03:05:56.041Z,87.41
2022-08-03T03:08:28.386Z,86.90
2022-08-03T03:11:01.068Z,86.80
2022-08-03T03:13:30.527Z,86.01
2022-08-03T03:16:01.745Z,86.37
2022-08-03T03:18:29.703Z,86.55
2022-08-03T03:20:57.953Z,86.68
2022-08-03T03:23:25.807Z,86.54
2022-08-03T03:25:53.441Z,86.34
2022-08-03T03:28:20.925Z,86.59
2022-08-03T03:30:52.815Z,86.23
2022-08-03T03:33:20.508Z,85.93
2022-08-03T03:35:47.628Z,86.02
2022-08-03T03:38:14.660Z,87.53
2022-08-03T03:40:41.877Z,87.00
2022-08-03T03:43:11.144Z,86.74
2022-08-03T03:45:41.141Z,87.21
2022-08-03T03:48:08.000Z,87.87
2022-08-03T03:50:37.363Z,89.05
2022-08-03T03:53:04.899Z,88.97
2022-08-03T03:55:31.757Z,89.10
2022-08-03T03:57:58.750Z,88.76
2022-08-03T04:00:25.633Z,89.42
2022-08-03T04:02:52.481Z,89.05
2022-08-03T04:05:37.677Z,89.17
2022-08-03T04:08:32.645Z,90.20
2022-08-03T04:11:29.304Z,90.16
2022-08-03T04:14:09.661Z,90.87
2022-08-03T04:16:43.784Z,91.12
2022-08-03T04:19:22.614Z,91.46
2022-08-03T04:21:53.505Z,91.17
2022-08-03T04:24:27.934Z,90.99
2022-08-03T04:26:57.672Z,90.67
2022-08-03T04:29:27.003Z,90.28
2022-08-03T04:31:55.568Z,89.68
2022-08-03T04:34:22.582Z,89.17
2022-08-03T04:36:54.975Z,88.98
2022-08-03T04:39:27.658Z,89.67
2022-08-03T04:42:07.613Z,89.86
2022-08-03T04:44:42.306Z,90.02
2022-08-03T04:47:09.259Z,89.50
2022-08-03T04:49:39.293Z,89.52
2022-08-03T04:52:10.117Z,90.26
2022-08-03T04:54:45.902Z,90.39
2022-08-03T04:57:22.182Z,90.23
2022-08-03T05:00:01.354Z,89.93
2022-08-03T05:02:30.634Z,89.39
2022-08-03T05:04:58.362Z,89.12
2022-08-03T05:07:25.499Z,88.80
2022-08-03T05:09:57.713Z,88.85
2022-08-03T05:12:32.707Z,88.88
2022-08-03T05:15:00.996Z,88.40
2022-08-03T05:17:28.806Z,88.58
2022-08-03T05:19:56.585Z,88.68
2022-08-03T05:22:23.961Z,88.51
2022-08-03T05:24:50.814Z,88.22
2022-08-03T05:27:19.609Z,88.55
2022-08-03T05:29:48.239Z,88.61
2022-08-03T05:32:16.749Z,88.66
2022-08-03T05:34:44.374Z,88.88
2022-08-03T05:37:11.512Z,88.78
2022-08-03T05:39:38.420Z,89.21
2022-08-03T05:42:05.242Z,89.23
2022-08-03T05:44:32.290Z,89.33
2022-08-03T05:46:59.518Z,89.65
2022-08-03T05:49:26.442Z,89.87
2022-08-03T05:52:00.027Z,89.84
2022-08-03T05:54:57.393Z,89.80
2022-08-03T05:57:25.933Z,90.33
2022-08-03T05:59:57.401Z,90.40
2022-08-03T06:02:28.461Z,90.56
2022-08-03T06:04:55.245Z,90.62
2022-08-03T06:07:22.383Z,90.87
2022-08-03T06:10:33.733Z,90.96
2022-08-03T06:12:36.238Z,90.30
2022-08-03T06:15:04.946Z,90.71
2022-08-03T06:17:37.672Z,90.18
2022-08-03T06:20:06.296Z,90.48
2022-08-03T06:22:33.118Z,90.68
2022-08-03T06:25:04.067Z,90.13
2022-08-03T06:27:36.432Z,90.18
2022-08-03T06:30:05.505Z,89.76
2022-08-03T06:32:32.456Z,89.44
2022-08-03T06:35:00.149Z,90.50
2022-08-03T06:37:27.346Z,90.36
2022-08-03T06:39:54.350Z,90.75
2022-08-03T06:42:21.494Z,90.88
2022-08-03T06:44:49.909Z,90.61
2022-08-03T06:47:16.789Z,90.50
2022-08-03T06:49:43.681Z,90.74
2022-08-03T06:52:37.879Z,91.37
2022-08-03T06:55:06.533Z,91.37
2022-08-03T06:57:33.375Z,91.18
2022-08-03T07:00:07.694Z,91.47
2022-08-03T07:02:39.850Z,91.24
2022-08-03T07:05:08.052Z,91.15
2022-08-03T07:07:34.899Z,90.68
2022-08-03T07:10:02.383Z,90.11
2022-08-03T07:12:30.842Z,90.46
2022-08-03T07:15:01.625Z,89.42
2022-08-03T07:17:35.541Z,89.67
2022-08-03T07:20:04.869Z,90.22
2022-08-03T07:22:31.705Z,89.25
2022-08-03T07:24:58.908Z,88.37
2022-08-03T07:27:30.469Z,88.32
2022-08-03T07:29:58.892Z,88.12
2022-08-03T07:32:26.314Z,86.97
2022-08-03T07:34:57.082Z,85.98
2022-08-03T07:37:27.229Z,85.14
2022-08-03T07:39:54.009Z,83.65
2022-08-03T07:42:20.845Z,83.14
2022-08-03T07:44:47.595Z,80.64
2022-08-03T07:47:24.016Z,78.27
2022-08-03T07:49:51.025Z,76.43
2022-08-03T07:52:37.128Z,76.22
2022-08-03T07:55:08.301Z,75.78
2022-08-03T07:57:35.802Z,72.84
2022-08-03T08:00:06.118Z,67.17
2022-08-03T08:02:32.900Z,67.99
2022-08-03T08:05:05.002Z,65.88
2022-08-03T08:07:32.498Z,65.12
2022-08-03T08:09:59.265Z,63.87
2022-08-03T08:12:26.063Z,56.50
2022-08-03T08:14:52.915Z,55.54
2022-08-03T08:17:20.125Z,54.93
2022-08-03T08:19:49.018Z,54.57
2022-08-03T08:22:19.746Z,52.07
2022-08-03T08:24:57.118Z,50.06
2022-08-03T08:27:23.891Z,50.04
2022-08-03T08:29:55.125Z,47.54
2022-08-03T08:32:24.479Z,46.79
2022-08-03T08:34:51.225Z,45.88
2022-08-03T08:37:18.151Z,45.77
2022-08-03T08:39:44.886Z,47.39
2022-08-03T08:42:11.833Z,44.92
2022-08-03T08:44:38.666Z,45.63
2022-08-03T08:47:06.023Z,46.92
2022-08-03T08:49:36.175Z,45.26
2022-08-03T08:52:05.145Z,44.26
2022-08-03T08:55:00.193Z,44.23
2022-08-03T08:57:51.197Z,46.56
2022-08-03T09:00:18.840Z,44.01
2022-08-03T09:02:46.751Z,42.03
2022-08-03T09:05:19.198Z,42.22
2022-08-03T09:07:47.737Z,43.63
2022-08-03T09:10:22.064Z,41.75
2022-08-03T09:12:52.226Z,41.29
2022-08-03T09:15:22.134Z,42.05
2022-08-03T09:17:51.419Z,42.03
2022-08-03T09:20:20.164Z,40.17
2022-08-03T09:23:51.592Z,41.01
2022-08-03T09:26:00.119Z,41.69
2022-08-03T09:29:01.287Z,42.41
2022-08-03T09:31:36.110Z,42.15
2022-08-03T09:34:09.184Z,40.04
2022-08-03T09:36:47.012Z,40.27
2022-08-03T09:39:40.398Z,38.57
2022-08-03T09:42:18.545Z,39.53
2022-08-03T09:44:50.869Z,40.70
2022-08-03T09:47:44.712Z,39.88
2022-08-03T09:50:13.064Z,39.78
2022-08-03T09:52:50.127Z,40.25
2022-08-03T09:56:34.645Z,40.79
2022-08-03T09:58:10.791Z,40.35
2022-08-03T10:00:57.723Z,40.29
2022-08-03T10:03:27.945Z,37.72
2022-08-03T10:05:59.577Z,36.70
2022-08-03T10:08:26.983Z,37.30
2022-08-03T10:10:54.792Z,38.16
2022-08-03T10:13:23.474Z,37.77
2022-08-03T10:16:22.769Z,37.03
2022-08-03T10:18:38.118Z,37.37
2022-08-03T10:21:08.777Z,37.51
2022-08-03T10:23:38.529Z,36.63
2022-08-03T10:26:08.299Z,35.97
2022-08-03T10:28:41.565Z,36.12
2022-08-03T10:31:14.039Z,36.59
2022-08-03T10:33:51.126Z,35.17
2022-08-03T10:36:24.998Z,34.53
2022-08-03T10:38:53.808Z,36.51
2022-08-03T10:41:22.697Z,35.08
2022-08-03T10:44:20.080Z,36.02
2022-08-03T10:46:50.458Z,35.43
2022-08-03T10:49:33.537Z,35.44
2022-08-03T10:52:01.305Z,34.83
2022-08-03T10:55:03.582Z,35.31
2022-08-03T10:58:01.006Z,34.16
2022-08-03T11:00:30.532Z,33.08
2022-08-03T11:03:10.263Z,33.61
2022-08-03T11:05:49.503Z,32.01
2022-08-03T11:08:26.358Z,32.93
2022-08-03T11:11:01.692Z,32.04
2022-08-03T11:13:32.044Z,33.56
2022-08-03T11:16:06.019Z,33.89
2022-08-03T11:18:33.537Z,32.22
2022-08-03T11:21:00.865Z,32.19
2022-08-03T11:24:03.994Z,33.04
2022-08-03T11:26:33.016Z,34.45
2022-08-03T11:29:29.587Z,33.58
2022-08-03T11:31:56.932Z,34.49
2022-08-03T11:34:24.764Z,34.40
2022-08-03T11:37:28.522Z,33.00
2022-08-03T11:39:57.356Z,33.14
2022-08-03T11:42:24.104Z,33.33
2022-08-03T11:44:52.273Z,33.00
2022-08-03T11:47:21.516Z,32.26
2022-08-03T11:49:51.198Z,32.24
2022-08-03T11:52:19.575Z,32.78
2022-08-03T11:54:57.197Z,31.49
2022-08-03T11:59:01.553Z,31.75
2022-08-03T12:00:29.611Z,32.13
2022-08-03T12:03:04.742Z,31.51
2022-08-03T12:05:52.329Z,30.09
2022-08-03T12:08:31.093Z,29.14
2022-08-03T12:11:01.438Z,30.44
2022-08-03T12:14:44.261Z,29.74
2022-08-03T12:16:25.930Z,29.30
2022-08-03T12:19:06.665Z,29.73
2022-08-03T12:21:34.638Z,29.10
2022-08-03T12:24:04.344Z,29.83
2022-08-03T12:26:58.556Z,29.41
2022-08-03T12:29:26.437Z,27.35
2022-08-03T12:31:53.420Z,26.70
2022-08-03T12:34:20.210Z,27.03
2022-08-03T12:36:59.190Z,26.29
2022-08-03T12:39:30.795Z,25.95
2022-08-03T12:41:58.053Z,26.61
2022-08-03T12:44:43.190Z,26.47
2022-08-03T12:47:11.926Z,26.67
2022-08-03T12:49:54.346Z,26.67
2022-08-03T12:52:23.627Z,25.90
2022-08-03T12:54:58.676Z,26.21
2022-08-03T12:57:25.646Z,26.11
2022-08-03T12:59:56.024Z,26.72
2022-08-03T13:02:26.287Z,24.64
2022-08-03T13:04:55.255Z,25.97
2022-08-03T13:07:23.254Z,25.68
2022-08-03T13:09:56.799Z,24.44
2022-08-03T13:12:30.051Z,24.96
2022-08-03T13:14:59.991Z,24.95
2022-08-03T13:17:28.053Z,24.76
2022-08-03T13:19:55.002Z,24.94
2022-08-03T13:22:26.242Z,26.12
2022-08-03T13:24:58.489Z,24.83
2022-08-03T13:28:04.013Z,25.11
2022-08-03T13:30:14.533Z,25.10
2022-08-03T13:32:51.779Z,25.10
2022-08-03T13:35:18.647Z,25.33
2022-08-03T13:37:47.395Z,23.49
2022-08-03T13:40:15.949Z,23.51
2022-08-03T13:42:42.813Z,24.05
2022-08-03T13:45:11.395Z,22.96
2022-08-03T13:47:38.269Z,23.21
2022-08-03T13:50:05.592Z,23.72
2022-08-03T13:52:36.866Z,23.51
2022-08-03T13:55:06.638Z,23.15
2022-08-03T13:58:02.820Z,23.28
2022-08-03T14:00:28.052Z,23.54
2022-08-03T14:03:03.833Z,23.33
2022-08-03T14:05:34.261Z,23.53
2022-08-03T14:08:04.011Z,21.41
2022-08-03T14:10:31.309Z,21.19
2022-08-03T14:13:00.492Z,20.43
2022-08-03T14:15:28.693Z,20.57
2022-08-03T14:17:58.603Z,20.46
2022-08-03T14:20:38.809Z,20.26
2022-08-03T14:23:14.960Z,20.24
2022-08-03T14:25:44.541Z,19.86
2022-08-03T14:28:19.602Z,19.93
2022-08-03T14:30:46.731Z,19.83
2022-08-03T14:33:13.485Z,20.39
2022-08-03T14:35:40.699Z,19.39
2022-08-03T14:38:07.650Z,19.65
2022-08-03T14:40:34.539Z,20.74
2022-08-03T14:43:02.523Z,21.10
2022-08-03T14:45:29.433Z,20.86
2022-08-03T14:50:30.492Z,20.99
2022-08-03T14:50:48.307Z,21.29
2022-08-03T14:53:15.722Z,21.37
2022-08-03T14:55:50.511Z,20.66
2022-08-03T14:58:23.053Z,20.16
2022-08-03T15:00:51.585Z,21.18
2022-08-03T15:03:25.811Z,20.62
2022-08-03T15:05:54.355Z,21.69
2022-08-03T15:08:22.339Z,21.77
2022-08-03T15:10:50.646Z,21.46
2022-08-03T15:13:18.006Z,21.95
2022-08-03T15:15:45.096Z,22.73
2022-08-03T15:18:12.105Z,22.49
2022-08-03T15:20:44.949Z,22.17
2022-08-03T15:23:14.558Z,22.27
2022-08-03T15:26:28.903Z,21.96
2022-08-03T15:28:29.712Z,21.80
2022-08-03T15:30:56.935Z,22.57
2022-08-03T15:33:23.845Z,22.36
2022-08-03T15:35:50.673Z,22.49
2022-08-03T15:38:17.959Z,22.13
2022-08-03T15:40:45.476Z,22.23
2022-08-03T15:43:12.518Z,22.32
2022-08-03T15:45:41.185Z,22.89
2022-08-03T15:48:09.114Z,22.58
2022-08-03T15:50:36.219Z,22.27
2022-08-03T15:53:03.590Z,22.54
2022-08-03T15:55:31.317Z,22.37
2022-08-03T15:59:10.143Z,23.43
2022-08-03T16:00:45.057Z,22.46
2022-08-03T16:03:11.854Z,22.97
2022-08-03T16:05:38.797Z,23.68
2022-08-03T16:08:09.016Z,23.41
2022-08-03T16:10:38.725Z,24.06
2022-08-03T16:13:05.532Z,24.40
2022-08-03T16:15:32.430Z,25.09
2022-08-03T16:18:08.692Z,25.09
2022-08-03T16:20:35.684Z,25.12
2022-08-03T16:23:11.088Z,24.94
2022-08-03T16:25:40.132Z,24.80
2022-08-03T16:28:13.594Z,24.21
2022-08-03T16:30:43.396Z,24.55
2022-08-03T16:33:16.589Z,24.67
2022-08-03T16:35:46.173Z,24.60
2022-08-03T16:38:18.518Z,25.28
2022-08-03T16:40:47.777Z,25.42
2022-08-03T16:43:18.411Z,25.60
2022-08-03T16:45:47.246Z,25.96
2022-08-03T16:48:15.904Z,26.07
2022-08-03T16:50:42.789Z,26.20
2022-08-03T16:53:16.666Z,25.97
2022-08-03T16:55:53.625Z,26.22
2022-08-03T16:58:34.432Z,27.01
2022-08-03T17:01:21.878Z,26.66
2022-08-03T17:04:02.283Z,26.40
2022-08-03T17:06:35.473Z,26.44
2022-08-03T17:09:10.141Z,26.31
2022-08-03T17:11:47.331Z,26.39
2022-08-03T17:14:17.231Z,25.95
2022-08-03T17:16:52.570Z,26.10
2022-08-03T17:19:23.695Z,26.12
2022-08-03T17:22:04.901Z,25.64
2022-08-03T17:24:41.305Z,25.41
2022-08-03T17:28:41.834Z,25.11
2022-08-03T17:30:14.982Z,25.93
2022-08-03T17:32:57.704Z,26.60
2022-08-03T17:35:36.619Z,26.83
2022-08-03T17:38:10.299Z,26.81
2022-08-03T17:40:47.972Z,26.84
2022-08-03T17:44:13.453Z,27.87
2022-08-03T17:46:10.572Z,29.53
2022-08-03T17:48:41.172Z,28.64
2022-08-03T17:51:20.477Z,29.66
2022-08-03T17:54:05.025Z,30.33
2022-08-03T17:58:01.448Z,32.30
2022-08-03T18:00:43.892Z,33.78
2022-08-03T18:03:59.399Z,34.93
2022-08-03T18:06:36.757Z,35.73
2022-08-03T18:10:04.391Z,36.61
2022-08-03T18:11:58.646Z,36.73
2022-08-03T18:14:43.217Z,36.23
2022-08-03T18:17:55.621Z,36.06
2022-08-03T18:20:34.418Z,36.74
2022-08-03T18:23:25.062Z,36.52
2022-08-03T18:26:02.060Z,36.94
2022-08-03T18:28:29.843Z,37.61
2022-08-03T18:30:57.637Z,37.65
2022-08-03T18:34:18.951Z,38.15
2022-08-03T18:36:21.704Z,38.12
2022-08-03T18:38:59.529Z,38.67
2022-08-03T18:41:33.167Z,38.80
2022-08-03T18:44:08.087Z,40.15
2022-08-03T18:46:49.506Z,41.46
2022-08-03T18:49:46.859Z,43.53
2022-08-03T18:52:27.845Z,43.04
2022-08-03T18:56:01.362Z,43.76
2022-08-03T18:59:08.759Z,44.22
2022-08-03T19:01:59.782Z,44.31
2022-08-03T19:04:32.483Z,44.43
2022-08-03T19:07:09.177Z,45.30
2022-08-03T19:09:49.456Z,45.57
2022-08-03T19:12:39.854Z,46.36
2022-08-03T19:15:10.391Z,46.80
2022-08-03T19:17:53.264Z,47.08
2022-08-03T19:20:28.777Z,47.40
2022-08-03T19:22:58.689Z,48.98
2022-08-03T19:25:34.317Z,49.22
2022-08-03T19:28:06.102Z,48.99
2022-08-03T19:30:53.361Z,49.67
2022-08-03T19:33:21.890Z,51.50
2022-08-03T19:35:55.089Z,52.05
2022-08-03T19:38:27.391Z,52.32
2022-08-03T19:41:03.679Z,53.04
2022-08-03T19:46:31.652Z,55.01
2022-08-03T19:49:15.029Z,55.08
2022-08-03T19:52:01.561Z,55.19
2022-08-03T19:54:54.210Z,55.01
2022-08-03T19:57:25.087Z,55.57
2022-08-03T19:59:54.080Z,55.57
2022-08-03T20:02:26.766Z,55.76
2022-08-03T20:04:57.183Z,56.35
2022-08-03T20:07:26.478Z,56.21
2022-08-03T20:09:56.409Z,55.93
2022-08-03T20:12:28.094Z,56.31
2022-08-03T20:14:57.768Z,56.66
2022-08-03T20:20:12.646Z,57.30
2022-08-03T20:22:45.547Z,57.43
2022-08-03T20:28:14.227Z,57.73
2022-08-03T20:30:44.344Z,58.11
2022-08-03T20:33:19.011Z,58.78
2022-08-03T20:35:49.260Z,59.60
2022-08-03T20:38:18.551Z,58.93
2022-08-03T20:40:47.462Z,59.45
2022-08-03T20:43:15.749Z,61.92
2022-08-03T20:45:59.651Z,61.07
2022-08-03T20:48:31.140Z,62.05
2022-08-03T20:50:58.377Z,63.08
2022-08-03T20:53:56.901Z,63.65
2022-08-03T20:56:15.155Z,64.73
2022-08-03T20:58:50.515Z,64.23
2022-08-03T21:01:18.059Z,64.35
2022-08-03T21:03:55.799Z,64.20
2022-08-03T21:06:27.837Z,63.75
2022-08-03T21:09:05.224Z,64.65
2022-08-03T21:11:41.932Z,66.61
2022-08-03T21:13:02.803Z,54.36
2022-08-03T21:13:06.786Z,57.82
2022-08-03T21:13:10.448Z,56.83
2022-08-03T21:14:59.210Z,67.37
2022-08-03T21:17:39.899Z,67.46
2022-08-03T21:20:10.897Z,67.36
2022-08-03T21:22:40.130Z,66.67
2022-08-03T21:25:09.541Z,67.03
2022-08-03T21:27:37.356Z,66.38
2022-08-03T21:30:10.255Z,66.14
2022-08-03T21:32:40.442Z,65.24
2022-08-03T21:35:11.169Z,65.56
2022-08-03T21:37:40.189Z,67.27
2022-08-03T21:40:10.818Z,69.38
2022-08-03T21:42:39.547Z,69.01
2022-08-03T21:45:17.157Z,68.35
2022-08-03T21:47:45.374Z,67.82
2022-08-03T21:50:13.876Z,67.36
2022-08-03T21:52:44.769Z,69.31
2022-08-03T21:55:18.408Z,69.39
2022-08-03T21:57:53.261Z,70.65
2022-08-03T22:00:23.181Z,70.57
2022-08-03T22:02:57.433Z,69.92
2022-08-03T22:05:28.958Z,69.36
2022-08-03T22:08:09.995Z,68.80
2022-08-03T22:10:37.355Z,69.09
2022-08-03T22:13:04.233Z,68.59
2022-08-03T22:15:31.313Z,68.87
2022-08-03T22:18:03.470Z,68.74
2022-08-03T22:20:30.786Z,68.47
2022-08-03T22:23:02.793Z,68.73
2022-08-03T22:25:34.637Z,68.68
2022-08-03T22:28:07.958Z,68.79
2022-08-03T22:30:35.286Z,69.32
2022-08-03T22:33:05.784Z,70.06
2022-08-03T22:35:47.837Z,72.08
2022-08-03T22:38:18.874Z,72.51
2022-08-03T22:40:48.932Z,71.47
2022-08-03T22:43:16.714Z,71.54
2022-08-03T22:46:08.900Z,70.78
2022-08-03T22:48:36.624Z,70.66
2022-08-03T22:51:08.985Z,71.00
2022-08-03T22:53:36.460Z,71.58
2022-08-03T22:56:03.908Z,73.37
2022-08-03T22:58:30.749Z,74.59
2022-08-03T23:01:09.852Z,75.21
2022-08-03T23:04:00.837Z,74.47
2022-08-03T23:06:37.146Z,73.84
2022-08-03T23:09:10.048Z,73.22
2022-08-03T23:11:45.487Z,73.13
2022-08-03T23:14:16.615Z,73.78
2022-08-03T23:16:45.804Z,74.80
2022-08-03T23:19:16.983Z,74.63
2022-08-03T23:21:52.913Z,76.32
2022-08-03T23:24:30.159Z,77.58
2022-08-03T23:26:57.693Z,78.47
2022-08-03T23:29:26.771Z,78.15
2022-08-03T23:31:54.551Z,76.77
2022-08-03T23:34:41.529Z,77.17
2022-08-03T23:37:09.742Z,79.01
2022-08-03T23:39:37.482Z,79.54
2022-08-03T23:42:05.549Z,80.46
2022-08-03T23:44:34.858Z,79.35
2022-08-03T23:47:01.799Z,78.38
2022-08-03T23:49:28.614Z,77.79
2022-08-03T23:52:18.382Z,78.01
2022-08-03T23:55:13.645Z,76.87
2022-08-03T23:58:04.685Z,76.24
